CheckWX is a tool to help pilots better visualize weather data.  It is not intended as a substitute for an official pre-flight weather briefing.

17:35:38 UTC

SAAR METAR
Islas Malvinas Airport
Rosario, Argentina
Current

36 mins ago

SAAR 191700Z 18021KT CAVOK 16/M07 Q1011
Observed
Sep-19 @ 17:00 UTC
Wind
  • 180° at 21 KTS
Visibility
10,000+ meters
Flight Rules
VFR
Cloud Levels
  • Clear skies
Temperature
16°C / 61°F
Dewpoint
-7°C / 19°F
Humidity
20%
Altimeter
29.85" Hg
Pressure
1010.92 hPa
Previous

2 hours ago

SAAR 191600Z 18020KT CAVOK 16/M02 Q1011
Observed
Sep-19 @ 16:00 UTC
Wind
  • 180° at 20 KTS
Visibility
10,000+ meters
Flight Rules
VFR
Cloud Levels
  • Clear skies
Temperature
16°C / 61°F
Dewpoint
-2°C / 28°F
Humidity
29%
Altimeter
29.85" Hg
Pressure
1010.92 hPa
Previous

3 hours ago

SAAR 191500Z 18022KT CAVOK 17/00 Q1010
Observed
Sep-19 @ 15:00 UTC
Wind
  • 180° at 22 KTS
Visibility
10,000+ meters
Flight Rules
VFR
Cloud Levels
  • Clear skies
Temperature
17°C / 63°F
Dewpoint
C / 32°F
Humidity
32%
Altimeter
29.82" Hg
Pressure
1009.92 hPa